sensor_id;sensor_type;location;lat;lon;timestamp;temperature;humidity
72940;DHT22;61094;51.154;13.570;2023-04-30T00:01:11;9.70;99.90
72940;DHT22;61094;51.154;13.570;2023-04-30T00:06:12;9.70;99.90
72940;DHT22;61094;51.154;13.570;2023-04-30T00:11:15;9.70;99.90
72940;DHT22;61094;51.154;13.570;2023-04-30T00:16:17;9.60;99.90
72940;DHT22;61094;51.154;13.570;2023-04-30T00:21:19;9.60;99.90
72940;DHT22;61094;51.154;13.570;2023-04-30T00:26:21;9.50;99.90
72940;DHT22;61094;51.154;13.570;2023-04-30T00:31:25;9.40;99.90
72940;DHT22;61094;51.154;13.570;2023-04-30T00:36:27;9.30;99.90
72940;DHT22;61094;51.154;13.570;2023-04-30T00:41:29;9.10;99.90
72940;DHT22;61094;51.154;13.570;2023-04-30T00:46:33;9.00;99.90
72940;DHT22;61094;51.154;13.570;2023-04-30T00:51:35;8.90;99.90
72940;DHT22;61094;51.154;13.570;2023-04-30T00:56:38;8.80;99.90
72940;DHT22;61094;51.154;13.570;2023-04-30T01:01:42;8.60;99.90
72940;DHT22;61094;51.154;13.570;2023-04-30T01:06:44;8.50;99.90
72940;DHT22;61094;51.154;13.570;2023-04-30T01:11:55;8.40;99.90
72940;DHT22;61094;51.154;13.570;2023-04-30T01:17:07;8.30;99.90
72940;DHT22;61094;51.154;13.570;2023-04-30T01:22:13;8.20;99.90
72940;DHT22;61094;51.154;13.570;2023-04-30T01:27:29;8.20;99.90
72940;DHT22;61094;51.154;13.570;2023-04-30T01:32:34;8.00;99.90
72940;DHT22;61094;51.154;13.570;2023-04-30T01:37:41;8.00;99.90
72940;DHT22;61094;51.154;13.570;2023-04-30T01:42:51;7.80;99.90
72940;DHT22;61094;51.154;13.570;2023-04-30T01:48:03;7.70;99.90
72940;DHT22;61094;51.154;13.570;2023-04-30T01:53:11;7.60;99.90
72940;DHT22;61094;51.154;13.570;2023-04-30T01:58:14;7.50;99.90
72940;DHT22;61094;51.154;13.570;2023-04-30T02:03:18;7.40;99.90
72940;DHT22;61094;51.154;13.570;2023-04-30T02:08:20;7.40;99.90
72940;DHT22;61094;51.154;13.570;2023-04-30T02:13:22;7.30;99.90
72940;DHT22;61094;51.154;13.570;2023-04-30T02:18:25;7.20;99.90
72940;DHT22;61094;51.154;13.570;2023-04-30T02:23:27;7.10;99.90
72940;DHT22;61094;51.154;13.570;2023-04-30T02:28:29;7.00;99.90
72940;DHT22;61094;51.154;13.570;2023-04-30T02:33:32;6.90;99.90
72940;DHT22;61094;51.154;13.570;2023-04-30T02:38:34;6.80;99.90
72940;DHT22;61094;51.154;13.570;2023-04-30T02:43:36;6.70;99.90
72940;DHT22;61094;51.154;13.570;2023-04-30T02:48:39;6.70;99.90
72940;DHT22;61094;51.154;13.570;2023-04-30T02:53:41;6.70;99.90
72940;DHT22;61094;51.154;13.570;2023-04-30T02:58:43;6.60;99.90
72940;DHT22;61094;51.154;13.570;2023-04-30T03:03:46;6.50;99.90
72940;DHT22;61094;51.154;13.570;2023-04-30T03:08:48;6.50;99.90
72940;DHT22;61094;51.154;13.570;2023-04-30T03:13:50;6.40;99.90
72940;DHT22;61094;51.154;13.570;2023-04-30T03:18:53;6.30;99.90
72940;DHT22;61094;51.154;13.570;2023-04-30T03:23:55;6.30;99.90
72940;DHT22;61094;51.154;13.570;2023-04-30T03:28:57;6.30;99.90
72940;DHT22;61094;51.154;13.570;2023-04-30T03:34:01;6.20;99.90
72940;DHT22;61094;51.154;13.570;2023-04-30T03:39:03;6.20;99.90
72940;DHT22;61094;51.154;13.570;2023-04-30T03:44:05;6.20;99.90
72940;DHT22;61094;51.154;13.570;2023-04-30T03:49:15;6.10;99.90
72940;DHT22;61094;51.154;13.570;2023-04-30T03:54:18;6.10;99.90
72940;DHT22;61094;51.154;13.570;2023-04-30T03:59:20;6.10;99.90
72940;DHT22;61094;51.154;13.570;2023-04-30T04:04:23;6.00;99.90
72940;DHT22;61094;51.154;13.570;2023-04-30T04:09:25;6.00;99.90
72940;DHT22;61094;51.154;13.570;2023-04-30T04:14:27;5.90;99.90
72940;DHT22;61094;51.154;13.570;2023-04-30T04:19:30;5.90;99.90
72940;DHT22;61094;51.154;13.570;2023-04-30T04:24:32;5.80;99.90
72940;DHT22;61094;51.154;13.570;2023-04-30T04:29:35;5.80;99.90
72940;DHT22;61094;51.154;13.570;2023-04-30T04:34:38;5.70;99.90
72940;DHT22;61094;51.154;13.570;2023-04-30T04:39:40;5.70;99.90
72940;DHT22;61094;51.154;13.570;2023-04-30T04:44:42;5.70;99.90
72940;DHT22;61094;51.154;13.570;2023-04-30T04:49:45;5.70;99.90
72940;DHT22;61094;51.154;13.570;2023-04-30T04:54:47;5.70;99.90
72940;DHT22;61094;51.154;13.570;2023-04-30T04:59:49;5.80;99.90
72940;DHT22;61094;51.154;13.570;2023-04-30T05:04:52;5.80;99.90
72940;DHT22;61094;51.154;13.570;2023-04-30T05:09:54;5.90;99.90
72940;DHT22;61094;51.154;13.570;2023-04-30T05:14:56;6.00;99.90
72940;DHT22;61094;51.154;13.570;2023-04-30T05:19:59;6.10;99.90
72940;DHT22;61094;51.154;13.570;2023-04-30T05:25:00;6.20;99.90
72940;DHT22;61094;51.154;13.570;2023-04-30T05:30:03;6.30;99.90
72940;DHT22;61094;51.154;13.570;2023-04-30T05:35:07;6.40;99.90
72940;DHT22;61094;51.154;13.570;2023-04-30T05:40:10;6.50;99.90
72940;DHT22;61094;51.154;13.570;2023-04-30T05:45:12;6.50;99.90
72940;DHT22;61094;51.154;13.570;2023-04-30T05:50:18;6.60;99.90
72940;DHT22;61094;51.154;13.570;2023-04-30T05:55:20;6.60;99.90
72940;DHT22;61094;51.154;13.570;2023-04-30T06:00:22;6.70;99.90
72940;DHT22;61094;51.154;13.570;2023-04-30T06:05:27;6.70;99.90
72940;DHT22;61094;51.154;13.570;2023-04-30T06:10:30;6.80;99.90
72940;DHT22;61094;51.154;13.570;2023-04-30T06:15:32;6.90;99.90
72940;DHT22;61094;51.154;13.570;2023-04-30T06:20:35;7.00;99.90
72940;DHT22;61094;51.154;13.570;2023-04-30T06:25:38;7.10;99.90
72940;DHT22;61094;51.154;13.570;2023-04-30T06:30:39;7.30;99.90
72940;DHT22;61094;51.154;13.570;2023-04-30T06:35:43;7.50;99.90
72940;DHT22;61094;51.154;13.570;2023-04-30T06:40:44;7.60;99.90
72940;DHT22;61094;51.154;13.570;2023-04-30T06:45:46;7.70;99.90
72940;DHT22;61094;51.154;13.570;2023-04-30T06:50:49;7.80;99.90
72940;DHT22;61094;51.154;13.570;2023-04-30T06:55:52;7.90;99.90
72940;DHT22;61094;51.154;13.570;2023-04-30T07:00:54;8.10;99.90
72940;DHT22;61094;51.154;13.570;2023-04-30T07:05:58;8.30;99.90
72940;DHT22;61094;51.154;13.570;2023-04-30T07:11:00;8.50;99.90
72940;DHT22;61094;51.154;13.570;2023-04-30T07:16:02;8.90;99.90
72940;DHT22;61094;51.154;13.570;2023-04-30T07:21:05;9.20;99.90
72940;DHT22;61094;51.154;13.570;2023-04-30T07:26:08;9.30;99.40
72940;DHT22;61094;51.154;13.570;2023-04-30T07:31:10;9.60;99.90
72940;DHT22;61094;51.154;13.570;2023-04-30T07:36:13;10.50;99.70
72940;DHT22;61094;51.154;13.570;2023-04-30T07:41:15;11.40;99.10
72940;DHT22;61094;51.154;13.570;2023-04-30T07:46:17;11.60;91.30
72940;DHT22;61094;51.154;13.570;2023-04-30T07:51:20;11.70;90.40
72940;DHT22;61094;51.154;13.570;2023-04-30T07:56:22;11.30;94.30
72940;DHT22;61094;51.154;13.570;2023-04-30T08:01:30;11.30;93.00
72940;DHT22;61094;51.154;13.570;2023-04-30T08:06:48;11.40;92.20
72940;DHT22;61094;51.154;13.570;2023-04-30T08:11:50;11.70;94.90
72940;DHT22;61094;51.154;13.570;2023-04-30T08:16:52;11.80;89.40
72940;DHT22;61094;51.154;13.570;2023-04-30T08:21:55;11.80;92.10
72940;DHT22;61094;51.154;13.570;2023-04-30T08:26:57;11.80;93.30
72940;DHT22;61094;51.154;13.570;2023-04-30T08:32:01;12.00;87.40
72940;DHT22;61094;51.154;13.570;2023-04-30T08:37:06;12.50;86.60
72940;DHT22;61094;51.154;13.570;2023-04-30T08:42:08;13.00;70.50
72940;DHT22;61094;51.154;13.570;2023-04-30T08:47:13;13.50;72.00
72940;DHT22;61094;51.154;13.570;2023-04-30T08:52:19;13.70;67.10
72940;DHT22;61094;51.154;13.570;2023-04-30T08:57:22;14.00;63.30
72940;DHT22;61094;51.154;13.570;2023-04-30T09:02:23;13.80;89.50
72940;DHT22;61094;51.154;13.570;2023-04-30T09:07:30;13.40;61.70
72940;DHT22;61094;51.154;13.570;2023-04-30T09:12:34;13.70;67.40
72940;DHT22;61094;51.154;13.570;2023-04-30T09:17:36;14.00;64.80
72940;DHT22;61094;51.154;13.570;2023-04-30T09:22:41;14.50;63.10
72940;DHT22;61094;51.154;13.570;2023-04-30T09:27:44;14.20;63.80
72940;DHT22;61094;51.154;13.570;2023-04-30T09:32:53;13.70;61.70
72940;DHT22;61094;51.154;13.570;2023-04-30T09:43:00;14.30;56.80
72940;DHT22;61094;51.154;13.570;2023-04-30T09:48:03;14.80;52.50
72940;DHT22;61094;51.154;13.570;2023-04-30T09:53:05;15.50;48.30
72940;DHT22;61094;51.154;13.570;2023-04-30T09:58:10;15.90;45.60
72940;DHT22;61094;51.154;13.570;2023-04-30T10:03:13;16.10;46.60
72940;DHT22;61094;51.154;13.570;2023-04-30T10:08:23;16.30;46.50
72940;DHT22;61094;51.154;13.570;2023-04-30T10:13:30;16.50;46.50
72940;DHT22;61094;51.154;13.570;2023-04-30T10:18:34;16.60;43.80
72940;DHT22;61094;51.154;13.570;2023-04-30T10:23:37;16.60;41.50
72940;DHT22;61094;51.154;13.570;2023-04-30T10:28:43;16.60;44.20
72940;DHT22;61094;51.154;13.570;2023-04-30T10:33:53;16.80;44.10
72940;DHT22;61094;51.154;13.570;2023-04-30T10:39:00;16.90;42.50
72940;DHT22;61094;51.154;13.570;2023-04-30T10:44:06;17.00;44.80
72940;DHT22;61094;51.154;13.570;2023-04-30T10:49:10;17.20;40.70
72940;DHT22;61094;51.154;13.570;2023-04-30T10:54:15;17.40;42.50
72940;DHT22;61094;51.154;13.570;2023-04-30T10:59:19;17.60;41.70
72940;DHT22;61094;51.154;13.570;2023-04-30T11:04:21;17.60;40.00
72940;DHT22;61094;51.154;13.570;2023-04-30T11:09:28;17.70;42.00
72940;DHT22;61094;51.154;13.570;2023-04-30T11:14:39;17.90;39.20
72940;DHT22;61094;51.154;13.570;2023-04-30T11:19:45;17.90;38.80
72940;DHT22;61094;51.154;13.570;2023-04-30T11:24:52;17.80;39.00
72940;DHT22;61094;51.154;13.570;2023-04-30T11:29:57;17.70;39.40
72940;DHT22;61094;51.154;13.570;2023-04-30T11:34:59;17.80;38.80
72940;DHT22;61094;51.154;13.570;2023-04-30T11:40:02;17.80;37.50
72940;DHT22;61094;51.154;13.570;2023-04-30T11:45:08;17.90;39.60
72940;DHT22;61094;51.154;13.570;2023-04-30T11:50:11;17.80;37.50
72940;DHT22;61094;51.154;13.570;2023-04-30T11:55:14;17.60;37.80
72940;DHT22;61094;51.154;13.570;2023-04-30T12:00:19;17.70;36.90
72940;DHT22;61094;51.154;13.570;2023-04-30T12:05:23;17.60;37.90
72940;DHT22;61094;51.154;13.570;2023-04-30T12:10:25;17.90;39.90
72940;DHT22;61094;51.154;13.570;2023-04-30T12:15:28;18.10;38.10
72940;DHT22;61094;51.154;13.570;2023-04-30T12:20:30;18.30;39.10
72940;DHT22;61094;51.154;13.570;2023-04-30T12:25:39;18.50;37.10
72940;DHT22;61094;51.154;13.570;2023-04-30T12:30:43;18.60;38.70
72940;DHT22;61094;51.154;13.570;2023-04-30T12:35:45;18.60;37.10
72940;DHT22;61094;51.154;13.570;2023-04-30T12:40:47;18.70;39.10
72940;DHT22;61094;51.154;13.570;2023-04-30T12:45:51;18.90;38.60
72940;DHT22;61094;51.154;13.570;2023-04-30T12:50:54;18.90;36.50
72940;DHT22;61094;51.154;13.570;2023-04-30T12:56:06;18.90;37.00
72940;DHT22;61094;51.154;13.570;2023-04-30T13:01:11;18.90;35.10
72940;DHT22;61094;51.154;13.570;2023-04-30T13:06:15;18.90;37.40
72940;DHT22;61094;51.154;13.570;2023-04-30T13:11:17;18.90;36.70
72940;DHT22;61094;51.154;13.570;2023-04-30T13:16:21;18.90;35.90
72940;DHT22;61094;51.154;13.570;2023-04-30T13:21:23;18.90;34.10
72940;DHT22;61094;51.154;13.570;2023-04-30T13:26:26;18.90;35.10
72940;DHT22;61094;51.154;13.570;2023-04-30T13:31:29;18.90;35.00
72940;DHT22;61094;51.154;13.570;2023-04-30T13:36:31;19.00;35.40
72940;DHT22;61094;51.154;13.570;2023-04-30T13:41:33;19.00;33.80
72940;DHT22;61094;51.154;13.570;2023-04-30T13:46:36;19.10;35.60
72940;DHT22;61094;51.154;13.570;2023-04-30T13:51:38;19.20;32.50
72940;DHT22;61094;51.154;13.570;2023-04-30T13:56:40;19.40;32.10
72940;DHT22;61094;51.154;13.570;2023-04-30T14:01:43;19.40;31.90
72940;DHT22;61094;51.154;13.570;2023-04-30T14:06:45;19.30;32.30
72940;DHT22;61094;51.154;13.570;2023-04-30T14:11:48;19.50;31.50
72940;DHT22;61094;51.154;13.570;2023-04-30T14:16:51;19.70;31.10
72940;DHT22;61094;51.154;13.570;2023-04-30T14:21:53;19.70;30.60
72940;DHT22;61094;51.154;13.570;2023-04-30T14:26:56;19.60;31.70
72940;DHT22;61094;51.154;13.570;2023-04-30T14:37:04;19.70;29.80
72940;DHT22;61094;51.154;13.570;2023-04-30T14:42:06;19.60;30.30
72940;DHT22;61094;51.154;13.570;2023-04-30T14:47:08;19.60;29.30
72940;DHT22;61094;51.154;13.570;2023-04-30T14:52:12;19.80;29.10
72940;DHT22;61094;51.154;13.570;2023-04-30T14:57:14;20.00;30.40
72940;DHT22;61094;51.154;13.570;2023-04-30T15:02:17;19.60;28.50
72940;DHT22;61094;51.154;13.570;2023-04-30T15:07:22;19.30;29.50
72940;DHT22;61094;51.154;13.570;2023-04-30T15:12:23;19.20;29.90
72940;DHT22;61094;51.154;13.570;2023-04-30T15:17:25;19.20;30.00
72940;DHT22;61094;51.154;13.570;2023-04-30T15:22:28;19.00;30.00
72940;DHT22;61094;51.154;13.570;2023-04-30T15:27:30;18.90;29.40
72940;DHT22;61094;51.154;13.570;2023-04-30T15:32:32;18.80;31.50
72940;DHT22;61094;51.154;13.570;2023-04-30T15:37:35;18.60;30.80
72940;DHT22;61094;51.154;13.570;2023-04-30T15:42:38;18.50;32.60
72940;DHT22;61094;51.154;13.570;2023-04-30T15:47:40;18.40;31.80
72940;DHT22;61094;51.154;13.570;2023-04-30T15:52:43;18.20;32.90
72940;DHT22;61094;51.154;13.570;2023-04-30T15:57:45;18.20;32.60
72940;DHT22;61094;51.154;13.570;2023-04-30T16:02:47;18.10;33.20
72940;DHT22;61094;51.154;13.570;2023-04-30T16:07:51;17.80;32.80
72940;DHT22;61094;51.154;13.570;2023-04-30T16:12:53;17.70;33.70
72940;DHT22;61094;51.154;13.570;2023-04-30T16:17:55;17.50;34.10
72940;DHT22;61094;51.154;13.570;2023-04-30T16:22:58;17.20;35.20
72940;DHT22;61094;51.154;13.570;2023-04-30T16:28:00;17.10;34.30
72940;DHT22;61094;51.154;13.570;2023-04-30T16:33:02;16.90;34.90
72940;DHT22;61094;51.154;13.570;2023-04-30T16:38:05;16.80;35.50
72940;DHT22;61094;51.154;13.570;2023-04-30T16:43:09;16.60;34.80
72940;DHT22;61094;51.154;13.570;2023-04-30T16:48:12;16.40;35.00
72940;DHT22;61094;51.154;13.570;2023-04-30T16:53:15;16.30;35.50
72940;DHT22;61094;51.154;13.570;2023-04-30T16:58:17;16.20;35.60
72940;DHT22;61094;51.154;13.570;2023-04-30T17:03:18;16.00;36.50
72940;DHT22;61094;51.154;13.570;2023-04-30T17:08:22;15.80;37.00
72940;DHT22;61094;51.154;13.570;2023-04-30T17:13:24;15.70;36.90
72940;DHT22;61094;51.154;13.570;2023-04-30T17:18:26;15.60;36.60
72940;DHT22;61094;51.154;13.570;2023-04-30T17:23:29;15.40;37.70
72940;DHT22;61094;51.154;13.570;2023-04-30T17:28:31;15.30;37.90
72940;DHT22;61094;51.154;13.570;2023-04-30T17:33:33;15.10;37.30
72940;DHT22;61094;51.154;13.570;2023-04-30T17:38:36;15.00;37.40
72940;DHT22;61094;51.154;13.570;2023-04-30T17:43:38;14.90;38.70
72940;DHT22;61094;51.154;13.570;2023-04-30T17:48:40;14.80;37.70
72940;DHT22;61094;51.154;13.570;2023-04-30T17:53:43;14.70;38.30
72940;DHT22;61094;51.154;13.570;2023-04-30T17:58:45;14.60;38.20
72940;DHT22;61094;51.154;13.570;2023-04-30T18:03:47;14.40;38.40
72940;DHT22;61094;51.154;13.570;2023-04-30T18:08:50;14.30;39.40
72940;DHT22;61094;51.154;13.570;2023-04-30T18:13:53;14.20;39.80
72940;DHT22;61094;51.154;13.570;2023-04-30T18:18:54;14.00;40.20
72940;DHT22;61094;51.154;13.570;2023-04-30T18:23:58;13.90;40.90
72940;DHT22;61094;51.154;13.570;2023-04-30T18:28:59;13.70;41.20
72940;DHT22;61094;51.154;13.570;2023-04-30T18:34:01;13.50;42.00
72940;DHT22;61094;51.154;13.570;2023-04-30T18:39:05;13.40;43.10
72940;DHT22;61094;51.154;13.570;2023-04-30T18:44:09;13.20;43.40
72940;DHT22;61094;51.154;13.570;2023-04-30T18:49:12;13.10;43.90
72940;DHT22;61094;51.154;13.570;2023-04-30T18:54:16;13.00;44.60
72940;DHT22;61094;51.154;13.570;2023-04-30T18:59:18;12.80;44.30
72940;DHT22;61094;51.154;13.570;2023-04-30T19:04:21;12.60;45.20
72940;DHT22;61094;51.154;13.570;2023-04-30T19:09:24;12.40;45.30
72940;DHT22;61094;51.154;13.570;2023-04-30T19:14:26;12.10;46.80
72940;DHT22;61094;51.154;13.570;2023-04-30T19:19:27;11.80;46.50
72940;DHT22;61094;51.154;13.570;2023-04-30T19:24:30;11.50;48.30
72940;DHT22;61094;51.154;13.570;2023-04-30T19:29:32;11.30;52.70
72940;DHT22;61094;51.154;13.570;2023-04-30T19:34:34;11.00;60.00
72940;DHT22;61094;51.154;13.570;2023-04-30T19:39:38;10.70;60.10
72940;DHT22;61094;51.154;13.570;2023-04-30T19:44:39;10.60;58.60
72940;DHT22;61094;51.154;13.570;2023-04-30T19:49:41;10.50;65.90
72940;DHT22;61094;51.154;13.570;2023-04-30T19:54:45;10.30;68.10
72940;DHT22;61094;51.154;13.570;2023-04-30T19:59:49;10.20;69.00
72940;DHT22;61094;51.154;13.570;2023-04-30T20:04:51;10.00;69.70
72940;DHT22;61094;51.154;13.570;2023-04-30T20:09:54;9.90;65.90
72940;DHT22;61094;51.154;13.570;2023-04-30T20:14:56;9.70;69.90
72940;DHT22;61094;51.154;13.570;2023-04-30T20:19:58;9.50;70.20
72940;DHT22;61094;51.154;13.570;2023-04-30T20:25:01;9.40;68.30
72940;DHT22;61094;51.154;13.570;2023-04-30T20:30:03;9.20;71.40
72940;DHT22;61094;51.154;13.570;2023-04-30T20:35:06;9.10;70.70
72940;DHT22;61094;51.154;13.570;2023-04-30T20:40:10;8.90;77.20
72940;DHT22;61094;51.154;13.570;2023-04-30T20:45:13;8.80;77.80
72940;DHT22;61094;51.154;13.570;2023-04-30T20:50:15;8.60;81.80
72940;DHT22;61094;51.154;13.570;2023-04-30T20:55:18;8.60;80.20
72940;DHT22;61094;51.154;13.570;2023-04-30T21:00:20;8.30;85.10
72940;DHT22;61094;51.154;13.570;2023-04-30T21:05:22;8.20;85.40
72940;DHT22;61094;51.154;13.570;2023-04-30T21:10:25;8.10;88.50
72940;DHT22;61094;51.154;13.570;2023-04-30T21:15:27;8.00;90.40
72940;DHT22;61094;51.154;13.570;2023-04-30T21:20:30;7.80;90.10
72940;DHT22;61094;51.154;13.570;2023-04-30T21:25:34;7.70;90.50
72940;DHT22;61094;51.154;13.570;2023-04-30T21:30:36;7.50;88.40
72940;DHT22;61094;51.154;13.570;2023-04-30T21:35:38;7.40;91.40
72940;DHT22;61094;51.154;13.570;2023-04-30T21:40:44;7.30;90.30
72940;DHT22;61094;51.154;13.570;2023-04-30T21:45:46;7.20;92.80
72940;DHT22;61094;51.154;13.570;2023-04-30T21:50:48;7.10;92.20
72940;DHT22;61094;51.154;13.570;2023-04-30T21:55:51;7.00;93.80
72940;DHT22;61094;51.154;13.570;2023-04-30T22:00:53;6.90;92.80
72940;DHT22;61094;51.154;13.570;2023-04-30T22:05:55;6.70;92.30
72940;DHT22;61094;51.154;13.570;2023-04-30T22:10:59;6.70;92.80
72940;DHT22;61094;51.154;13.570;2023-04-30T22:16:01;6.50;93.20
72940;DHT22;61094;51.154;13.570;2023-04-30T22:21:03;6.40;94.10
72940;DHT22;61094;51.154;13.570;2023-04-30T22:26:06;6.30;94.30
72940;DHT22;61094;51.154;13.570;2023-04-30T22:31:20;6.20;94.30
72940;DHT22;61094;51.154;13.570;2023-04-30T22:36:22;6.20;94.50
72940;DHT22;61094;51.154;13.570;2023-04-30T22:41:25;6.10;94.90
72940;DHT22;61094;51.154;13.570;2023-04-30T22:46:27;6.00;95.20
72940;DHT22;61094;51.154;13.570;2023-04-30T22:51:32;5.80;96.20
72940;DHT22;61094;51.154;13.570;2023-04-30T22:56:38;5.70;96.20
72940;DHT22;61094;51.154;13.570;2023-04-30T23:01:40;5.60;97.20
72940;DHT22;61094;51.154;13.570;2023-04-30T23:06:42;5.40;96.80
72940;DHT22;61094;51.154;13.570;2023-04-30T23:11:45;5.20;97.90
72940;DHT22;61094;51.154;13.570;2023-04-30T23:16:47;5.30;97.40
72940;DHT22;61094;51.154;13.570;2023-04-30T23:21:49;5.30;97.10
72940;DHT22;61094;51.154;13.570;2023-04-30T23:26:52;5.00;96.80
72940;DHT22;61094;51.154;13.570;2023-04-30T23:31:57;4.80;99.10
72940;DHT22;61094;51.154;13.570;2023-04-30T23:36:59;4.80;98.40
72940;DHT22;61094;51.154;13.570;2023-04-30T23:42:02;4.80;99.00
72940;DHT22;61094;51.154;13.570;2023-04-30T23:47:04;4.70;98.20
72940;DHT22;61094;51.154;13.570;2023-04-30T23:52:06;4.60;98.80
72940;DHT22;61094;51.154;13.570;2023-04-30T23:57:09;4.70;98.80
